createdAt,value
2019-05-20T00:00:02.890Z,4.03
2019-05-20T00:02:31.485Z,4.53
2019-05-20T00:05:00.062Z,3.97
2019-05-20T00:07:28.700Z,5.23
2019-05-20T00:09:57.566Z,4.30
2019-05-20T00:12:26.135Z,4.87
2019-05-20T00:14:54.723Z,5.13
2019-05-20T00:17:23.297Z,4.03
2019-05-20T00:19:51.882Z,4.73
2019-05-20T00:22:20.518Z,6.20
2019-05-20T00:24:49.119Z,4.43
2019-05-20T00:27:17.679Z,4.70
2019-05-20T00:29:46.243Z,5.00
2019-05-20T00:32:14.904Z,6.63
2019-05-20T00:34:43.523Z,4.80
2019-05-20T00:37:12.120Z,8.10
2019-05-20T00:39:40.674Z,4.70
2019-05-20T00:42:09.262Z,6.07
2019-05-20T00:44:38.569Z,5.03
2019-05-20T00:47:07.453Z,4.50
2019-05-20T00:49:36.102Z,6.33
2019-05-20T00:52:04.758Z,5.03
2019-05-20T00:54:33.816Z,4.97
2019-05-20T00:57:02.716Z,5.67
2019-05-20T00:59:31.274Z,6.37
2019-05-20T01:02:00.003Z,5.13
2019-05-20T01:04:28.561Z,5.47
2019-05-20T01:06:57.114Z,4.97
2019-05-20T01:09:26.040Z,5.00
2019-05-20T01:11:55.151Z,5.60
2019-05-20T01:14:24.125Z,6.07
2019-05-20T01:16:52.821Z,7.10
2019-05-20T01:19:21.691Z,5.73
2019-05-20T01:21:50.337Z,6.13
2019-05-20T01:24:19.319Z,7.17
2019-05-20T01:26:47.984Z,5.57
2019-05-20T01:29:16.602Z,6.70
2019-05-20T01:31:45.194Z,6.27
2019-05-20T01:34:13.758Z,6.83
2019-05-20T01:36:42.420Z,6.63
2019-05-20T01:39:11.047Z,6.27
2019-05-20T01:41:39.651Z,7.70
2019-05-20T01:44:08.551Z,9.70
2019-05-20T01:46:37.115Z,8.63
2019-05-20T01:49:05.807Z,7.33
2019-05-20T01:51:34.507Z,7.67
2019-05-20T01:54:03.391Z,8.20
2019-05-20T01:56:31.983Z,7.50
2019-05-20T01:59:00.607Z,8.77
2019-05-20T02:01:29.756Z,8.53
2019-05-20T02:03:58.351Z,10.13
2019-05-20T02:06:27.014Z,8.43
2019-05-20T02:08:55.572Z,8.60
2019-05-20T02:11:24.380Z,8.63
2019-05-20T02:13:54.613Z,9.47
2019-05-20T02:16:24.946Z,11.63
2019-05-20T02:18:53.539Z,10.37
2019-05-20T02:21:22.519Z,11.67
2019-05-20T02:23:51.170Z,10.27
2019-05-20T02:26:19.832Z,12.43
2019-05-20T02:28:48.442Z,14.23
2019-05-20T02:31:17.088Z,12.67
2019-05-20T02:33:51.749Z,15.13
2019-05-20T02:36:16.043Z,15.47
2019-05-20T02:38:44.684Z,14.37
2019-05-20T02:41:13.308Z,15.00
2019-05-20T02:43:41.979Z,14.80
2019-05-20T02:46:11.008Z,13.67
2019-05-20T02:48:39.611Z,18.53
2019-05-20T02:51:08.304Z,19.50
2019-05-20T02:53:37.403Z,17.43
2019-05-20T02:56:06.465Z,19.67
2019-05-20T02:58:35.134Z,16.40
2019-05-20T03:01:03.865Z,18.03
2019-05-20T03:03:32.572Z,17.47
2019-05-20T03:06:01.603Z,19.10
2019-05-20T03:08:30.402Z,19.33
2019-05-20T03:10:59.008Z,22.87
2019-05-20T03:13:27.702Z,21.37
2019-05-20T03:15:56.400Z,22.57
2019-05-20T03:18:25.246Z,21.00
2019-05-20T03:20:53.907Z,23.30
2019-05-20T03:23:22.474Z,24.70
2019-05-20T03:25:51.213Z,25.33
2019-05-20T03:28:19.918Z,22.90
2019-05-20T03:30:48.874Z,23.57
2019-05-20T03:33:17.896Z,26.60
2019-05-20T03:35:46.534Z,25.60
2019-05-20T03:38:15.133Z,26.10
2019-05-20T03:40:43.837Z,24.47
2019-05-20T03:43:12.717Z,30.27
2019-05-20T03:45:41.599Z,26.07
2019-05-20T03:48:10.341Z,23.77
2019-05-20T03:50:39.172Z,27.03
2019-05-20T03:53:08.180Z,25.13
2019-05-20T03:55:36.827Z,27.13
2019-05-20T03:58:05.487Z,27.63
2019-05-20T04:00:42.456Z,28.63
2019-05-20T04:03:11.190Z,28.20
2019-05-20T04:05:40.662Z,29.87
2019-05-20T04:08:09.590Z,31.80
2019-05-20T04:10:39.200Z,30.37
2019-05-20T04:13:08.201Z,33.53
2019-05-20T04:15:36.860Z,35.67
2019-05-20T04:18:05.495Z,34.27
2019-05-20T04:20:34.242Z,34.80
2019-05-20T04:23:03.252Z,37.30
2019-05-20T04:25:32.182Z,35.70
2019-05-20T04:28:01.051Z,34.80
2019-05-20T04:30:30.037Z,34.00
2019-05-20T04:32:58.855Z,34.20
2019-05-20T04:35:27.796Z,37.00
2019-05-20T04:37:56.508Z,34.10
2019-05-20T04:40:25.100Z,28.00
2019-05-20T04:42:54.080Z,36.33
2019-05-20T04:45:24.454Z,38.27
2019-05-20T04:47:53.227Z,35.93
2019-05-20T04:50:21.788Z,33.70
2019-05-20T04:52:50.504Z,37.73
2019-05-20T04:55:19.534Z,36.20
2019-05-20T04:57:48.126Z,35.67
2019-05-20T05:00:22.643Z,34.27
2019-05-20T05:02:51.535Z,32.47
2019-05-20T05:05:35.245Z,37.00
2019-05-20T05:07:50.743Z,35.90
2019-05-20T05:10:19.407Z,36.83
2019-05-20T05:12:48.080Z,36.87
2019-05-20T05:15:17.022Z,38.97
2019-05-20T05:17:45.661Z,38.90
2019-05-20T05:20:18.226Z,40.53
2019-05-20T05:22:45.167Z,40.60
2019-05-20T05:25:13.999Z,39.73
2019-05-20T05:27:42.991Z,35.83
2019-05-20T05:30:12.088Z,36.73
2019-05-20T05:32:44.360Z,36.50
2019-05-20T05:35:17.676Z,35.70
2019-05-20T05:37:46.806Z,34.00
2019-05-20T05:40:17.309Z,38.43
2019-05-20T05:42:46.027Z,35.67
2019-05-20T05:45:15.020Z,33.60
2019-05-20T05:47:43.901Z,35.63
2019-05-20T05:50:12.804Z,39.17
2019-05-20T05:52:41.443Z,35.27
2019-05-20T05:55:10.271Z,32.17
2019-05-20T05:57:38.863Z,32.47
2019-05-20T06:00:09.262Z,40.53
2019-05-20T06:02:38.299Z,36.07
2019-05-20T06:05:07.523Z,34.47
2019-05-20T06:07:36.523Z,37.47
2019-05-20T06:10:08.706Z,39.43
2019-05-20T06:12:37.797Z,40.37
2019-05-20T06:15:08.186Z,38.37
2019-05-20T06:17:36.767Z,44.90
2019-05-20T06:20:06.641Z,35.37
2019-05-20T06:22:35.369Z,41.33
2019-05-20T06:25:05.389Z,39.70
2019-05-20T06:27:34.235Z,42.33
2019-05-20T06:30:03.517Z,43.73
2019-05-20T06:32:32.142Z,39.33
2019-05-20T06:35:00.847Z,41.63
2019-05-20T06:37:31.151Z,42.27
2019-05-20T06:40:00.360Z,43.13
2019-05-20T06:42:29.032Z,42.83
2019-05-20T06:44:57.611Z,42.87
2019-05-20T06:47:26.311Z,44.90
2019-05-20T06:49:54.973Z,45.93
2019-05-20T06:52:35.509Z,45.57
2019-05-20T06:54:54.148Z,45.43
2019-05-20T06:57:24.011Z,42.83
2019-05-20T06:59:52.679Z,41.87
2019-05-20T07:02:21.316Z,41.60
2019-05-20T07:04:49.991Z,42.20
2019-05-20T07:07:21.319Z,40.47
2019-05-20T07:09:49.499Z,38.67
2019-05-20T07:12:41.697Z,45.67
2019-05-20T07:15:08.633Z,41.37
2019-05-20T07:17:37.201Z,45.50
2019-05-20T07:20:07.116Z,43.27
2019-05-20T07:22:53.790Z,54.33
2019-05-20T07:25:08.435Z,52.97
2019-05-20T07:27:37.430Z,54.73
2019-05-20T07:30:14.517Z,56.37
2019-05-20T07:32:40.655Z,55.63
2019-05-20T07:35:10.781Z,49.33
2019-05-20T07:37:39.367Z,48.00
2019-05-20T07:40:09.335Z,43.97
2019-05-20T07:42:38.005Z,38.50
2019-05-20T07:45:08.012Z,37.97
2019-05-20T07:47:37.043Z,34.03
2019-05-20T07:50:09.675Z,34.63
2019-05-20T07:52:38.923Z,31.93
2019-05-20T07:55:09.690Z,27.90
2019-05-20T07:57:41.386Z,29.00
2019-05-20T08:00:10.856Z,32.03
2019-05-20T08:02:40.120Z,30.87
2019-05-20T08:05:09.079Z,32.77
2019-05-20T08:07:51.307Z,29.47
2019-05-20T08:10:09.217Z,28.40
2019-05-20T08:12:37.935Z,29.03
2019-05-20T08:15:09.879Z,30.70
2019-05-20T08:17:38.595Z,29.20
2019-05-20T08:20:07.890Z,32.07
2019-05-20T08:22:36.508Z,31.20
2019-05-20T08:25:07.325Z,29.43
2019-05-20T08:27:36.019Z,29.33
2019-05-20T08:30:07.639Z,27.93
2019-05-20T08:32:36.629Z,29.90
2019-05-20T08:35:09.594Z,25.63
2019-05-20T08:37:45.554Z,26.13
2019-05-20T08:40:09.311Z,27.37
2019-05-20T08:42:37.956Z,26.03
2019-05-20T08:45:07.727Z,22.07
2019-05-20T08:47:36.558Z,22.90
2019-05-20T08:50:12.458Z,25.00
2019-05-20T08:52:37.537Z,22.33
2019-05-20T08:55:06.346Z,22.47
2019-05-20T08:57:35.356Z,23.57
2019-05-20T09:00:05.182Z,25.00
2019-05-20T09:02:34.138Z,21.70
2019-05-20T09:05:02.830Z,26.20
2019-05-20T09:07:31.697Z,24.47
2019-05-20T09:10:00.270Z,27.13
2019-05-20T09:12:28.860Z,27.37
2019-05-20T09:14:57.455Z,26.83
2019-05-20T09:17:26.095Z,26.37
2019-05-20T09:19:55.060Z,24.23
2019-05-20T09:22:23.727Z,23.20
2019-05-20T09:24:52.574Z,22.53
2019-05-20T09:27:21.358Z,22.27
2019-05-20T09:29:50.067Z,21.50
2019-05-20T09:32:18.911Z,19.50
2019-05-20T09:34:56.104Z,18.12
2019-05-20T09:37:24.703Z,20.77
2019-05-20T09:39:53.501Z,22.13
2019-05-20T09:42:22.062Z,18.92
2019-05-20T09:44:51.148Z,20.30
2019-05-20T09:47:20.129Z,21.50
2019-05-20T09:49:49.114Z,20.73
2019-05-20T09:52:17.817Z,22.43
2019-05-20T09:54:46.791Z,21.87
2019-05-20T09:57:15.793Z,22.63
2019-05-20T09:59:45.716Z,20.43
2019-05-20T10:02:14.350Z,21.37
2019-05-20T10:04:42.925Z,21.30
2019-05-20T10:07:11.968Z,21.60
2019-05-20T10:09:40.851Z,21.63
2019-05-20T10:12:09.537Z,20.13
2019-05-20T10:14:38.075Z,19.77
2019-05-20T10:17:06.838Z,20.93
2019-05-20T10:19:35.794Z,17.30
2019-05-20T10:22:04.789Z,18.23
2019-05-20T10:24:33.783Z,19.53
2019-05-20T10:27:02.422Z,18.57
2019-05-20T10:29:31.360Z,18.10
2019-05-20T10:31:59.964Z,16.80
2019-05-20T10:34:28.592Z,18.63
2019-05-20T10:36:57.621Z,17.03
2019-05-20T10:39:26.515Z,17.83
2019-05-20T10:41:55.396Z,16.03
2019-05-20T10:44:24.292Z,15.50
2019-05-20T10:46:52.928Z,13.87
2019-05-20T10:49:21.612Z,14.43
2019-05-20T10:51:50.260Z,15.13
2019-05-20T10:54:18.935Z,14.60
2019-05-20T10:56:47.816Z,14.63
2019-05-20T10:59:16.429Z,15.53
2019-05-20T11:01:45.056Z,14.17
2019-05-20T11:04:13.620Z,14.50
2019-05-20T11:06:42.660Z,12.90
2019-05-20T11:09:13.936Z,15.27
2019-05-20T11:11:41.896Z,16.47
2019-05-20T11:14:10.907Z,17.47
2019-05-20T11:16:39.969Z,17.57
2019-05-20T11:19:08.966Z,19.63
2019-05-20T11:21:37.643Z,18.77
2019-05-20T11:24:06.328Z,20.17
2019-05-20T11:26:35.320Z,21.60
2019-05-20T11:29:04.172Z,22.60
2019-05-20T11:31:32.849Z,22.53
2019-05-20T11:34:01.839Z,20.67
2019-05-20T11:36:30.629Z,20.73
2019-05-20T11:38:59.615Z,21.10
2019-05-20T11:41:52.244Z,22.60
2019-05-20T11:43:59.083Z,25.27
2019-05-20T11:46:27.651Z,25.60
2019-05-20T11:48:56.251Z,25.80
2019-05-20T11:51:24.887Z,26.50
2019-05-20T11:53:53.821Z,28.50
2019-05-20T11:56:22.719Z,26.33
2019-05-20T11:58:51.307Z,24.23
2019-05-20T12:01:19.900Z,21.27
2019-05-20T12:03:48.803Z,23.80
2019-05-20T12:06:17.411Z,18.87
2019-05-20T12:08:46.095Z,24.53
2019-05-20T12:11:14.678Z,24.60
2019-05-20T12:13:43.615Z,23.03
2019-05-20T12:16:12.318Z,21.50
2019-05-20T12:18:44.870Z,24.53
2019-05-20T12:21:11.655Z,25.73
2019-05-20T12:23:40.248Z,28.57
2019-05-20T12:26:09.205Z,27.97
2019-05-20T12:28:37.834Z,26.10
2019-05-20T12:31:06.536Z,27.80
2019-05-20T12:33:35.174Z,27.70
2019-05-20T12:36:04.543Z,32.50
2019-05-20T12:38:33.215Z,31.23
2019-05-20T12:41:01.979Z,32.80
2019-05-20T12:43:30.574Z,29.63
2019-05-20T12:45:59.263Z,33.60
2019-05-20T12:48:28.186Z,35.00
2019-05-20T12:50:56.812Z,33.80
2019-05-20T12:53:25.571Z,35.50
2019-05-20T12:55:54.163Z,34.13
2019-05-20T12:58:23.153Z,33.13
2019-05-20T13:00:51.752Z,34.60
2019-05-20T13:03:20.546Z,34.80
2019-05-20T13:05:49.610Z,37.57
2019-05-20T13:08:18.155Z,35.47
2019-05-20T13:10:47.159Z,33.93
2019-05-20T13:13:16.059Z,37.50
2019-05-20T13:15:44.756Z,35.57
2019-05-20T13:18:13.326Z,37.10
2019-05-20T13:20:41.915Z,33.97
2019-05-20T13:23:13.114Z,36.40
2019-05-20T13:25:40.892Z,37.23
2019-05-20T13:28:09.844Z,40.77
2019-05-20T13:30:38.694Z,39.97
2019-05-20T13:33:07.684Z,40.20
2019-05-20T13:35:36.576Z,38.37
2019-05-20T13:38:05.243Z,39.20
2019-05-20T13:40:45.746Z,38.70
2019-05-20T13:43:04.823Z,43.07
2019-05-20T13:45:33.671Z,42.17
2019-05-20T13:48:02.335Z,40.20
2019-05-20T13:50:30.974Z,39.83
2019-05-20T13:52:59.672Z,39.80
2019-05-20T13:55:28.721Z,42.27
2019-05-20T13:57:57.367Z,43.40
2019-05-20T14:00:26.178Z,40.23
2019-05-20T14:02:54.742Z,40.90
2019-05-20T14:05:23.382Z,43.13
2019-05-20T14:07:51.979Z,43.33
2019-05-20T14:10:20.675Z,37.63
2019-05-20T14:12:49.273Z,39.30
2019-05-20T14:15:18.025Z,39.93
2019-05-20T14:17:47.183Z,41.90
2019-05-20T14:20:17.090Z,38.73
2019-05-20T14:22:45.773Z,40.10
2019-05-20T14:25:15.499Z,39.10
2019-05-20T14:27:44.399Z,41.33
2019-05-20T14:30:13.908Z,38.57
2019-05-20T14:32:42.500Z,38.63
2019-05-20T14:35:11.294Z,43.20
2019-05-20T14:37:40.259Z,43.70
2019-05-20T14:40:09.184Z,40.47
2019-05-20T14:42:38.217Z,41.07
2019-05-20T14:45:08.011Z,39.93
2019-05-20T14:47:36.607Z,37.63
2019-05-20T14:50:10.449Z,39.63
2019-05-20T14:52:39.388Z,38.57
2019-05-20T14:55:08.642Z,41.50
2019-05-20T14:57:37.471Z,35.97
2019-05-20T15:00:08.768Z,40.03
2019-05-20T15:02:37.431Z,40.60
2019-05-20T15:05:07.839Z,42.53
2019-05-20T15:07:36.404Z,44.67
2019-05-20T15:10:09.146Z,47.87
2019-05-20T15:12:38.055Z,42.23
2019-05-20T15:15:07.692Z,52.87
2019-05-20T15:17:36.428Z,42.37
2019-05-20T15:20:08.209Z,42.27
2019-05-20T15:22:37.278Z,46.47
2019-05-20T15:25:07.447Z,45.73
2019-05-20T15:27:36.118Z,44.47
2019-05-20T15:30:06.882Z,43.97
2019-05-20T15:32:35.842Z,48.30
2019-05-20T15:35:06.022Z,44.23
2019-05-20T15:37:34.898Z,50.10
2019-05-20T15:40:04.109Z,49.87
2019-05-20T15:42:32.747Z,50.40
2019-05-20T15:45:01.439Z,52.77
2019-05-20T15:47:30.142Z,46.43
2019-05-20T15:49:58.971Z,49.40
2019-05-20T15:52:27.799Z,47.60
2019-05-20T15:54:56.407Z,50.80
2019-05-20T15:57:25.107Z,49.23
2019-05-20T15:59:54.111Z,50.73
2019-05-20T16:02:22.747Z,48.37
2019-05-20T16:04:51.455Z,54.60
2019-05-20T16:07:20.022Z,50.10
2019-05-20T16:09:48.695Z,47.37
2019-05-20T16:12:17.411Z,50.33
2019-05-20T16:14:46.427Z,49.63
2019-05-20T16:17:15.085Z,50.97
2019-05-20T16:19:43.747Z,54.20
2019-05-20T16:22:12.425Z,49.00
2019-05-20T16:24:41.003Z,49.43
2019-05-20T16:27:09.855Z,53.53
2019-05-20T16:29:38.472Z,49.50
2019-05-20T16:32:07.375Z,54.13
2019-05-20T16:34:36.024Z,50.10
2019-05-20T16:37:04.763Z,49.20
2019-05-20T16:39:33.689Z,52.40
2019-05-20T16:42:02.684Z,51.47
2019-05-20T16:44:31.311Z,55.20
2019-05-20T16:46:59.977Z,53.20
2019-05-20T16:49:28.546Z,56.77
2019-05-20T16:51:57.253Z,53.03
2019-05-20T16:54:26.230Z,52.63
2019-05-20T16:56:54.871Z,56.73
2019-05-20T16:59:23.894Z,51.43
2019-05-20T17:01:52.557Z,52.77
2019-05-20T17:04:21.131Z,51.90
2019-05-20T17:06:49.993Z,54.83
2019-05-20T17:09:20.731Z,51.63
2019-05-20T17:11:49.676Z,52.00
2019-05-20T17:14:18.411Z,49.80
2019-05-20T17:16:47.007Z,49.13
2019-05-20T17:19:15.600Z,47.10
2019-05-20T17:21:44.235Z,53.97
2019-05-20T17:24:12.826Z,54.57
2019-05-20T17:26:41.779Z,52.20
2019-05-20T17:29:10.771Z,49.70
2019-05-20T17:31:39.659Z,50.87
2019-05-20T17:34:08.295Z,48.83
2019-05-20T17:36:36.962Z,48.37
2019-05-20T17:39:06.798Z,50.53
2019-05-20T17:41:35.571Z,48.63
2019-05-20T17:44:04.883Z,50.43
2019-05-20T17:46:33.783Z,51.77
2019-05-20T17:49:02.848Z,50.33
2019-05-20T17:51:31.531Z,47.20
2019-05-20T17:54:00.091Z,46.80
2019-05-20T17:56:29.020Z,45.30
2019-05-20T17:58:57.660Z,47.80
2019-05-20T18:01:26.752Z,45.47
2019-05-20T18:03:55.345Z,46.27
2019-05-20T18:06:23.911Z,44.63
2019-05-20T18:08:54.184Z,47.93
2019-05-20T18:11:22.779Z,48.80
2019-05-20T18:13:51.448Z,48.53
2019-05-20T18:16:20.234Z,48.73
2019-05-20T18:18:48.958Z,45.03
2019-05-20T18:21:17.978Z,45.57
2019-05-20T18:23:46.685Z,48.73
2019-05-20T18:26:15.417Z,47.27
2019-05-20T18:28:44.059Z,45.43
2019-05-20T18:31:12.995Z,46.37
2019-05-20T18:33:41.643Z,44.43
2019-05-20T18:36:10.339Z,47.37
2019-05-20T18:38:38.937Z,44.37
2019-05-20T18:41:07.880Z,42.23
2019-05-20T18:43:36.487Z,40.90
2019-05-20T18:46:05.175Z,40.60
2019-05-20T18:48:34.040Z,41.93
2019-05-20T18:51:02.924Z,40.80
2019-05-20T18:53:31.512Z,41.70
2019-05-20T18:56:00.083Z,40.67
2019-05-20T18:58:29.076Z,42.20
2019-05-20T19:00:57.647Z,42.20
2019-05-20T19:03:27.167Z,42.23
2019-05-20T19:05:56.518Z,38.83
2019-05-20T19:08:25.664Z,37.90
2019-05-20T19:10:54.706Z,42.47
2019-05-20T19:13:23.427Z,39.07
2019-05-20T19:15:52.212Z,39.33
2019-05-20T19:18:21.231Z,39.97
2019-05-20T19:20:49.818Z,35.70
2019-05-20T19:23:18.485Z,36.50
2019-05-20T19:25:47.076Z,38.67
2019-05-20T19:28:15.674Z,38.43
2019-05-20T19:30:44.896Z,34.07
2019-05-20T19:33:14.764Z,36.60
2019-05-20T19:35:43.375Z,36.10
2019-05-20T19:38:12.338Z,38.67
2019-05-20T19:40:41.210Z,37.53
2019-05-20T19:43:09.779Z,36.93
2019-05-20T19:45:38.706Z,45.10
2019-05-20T19:48:07.301Z,36.80
2019-05-20T19:50:36.035Z,49.17
2019-05-20T19:53:04.889Z,37.43
2019-05-20T19:55:33.718Z,44.00
2019-05-20T19:58:02.288Z,43.37
2019-05-20T20:00:30.951Z,41.43
2019-05-20T20:02:59.688Z,41.70
2019-05-20T20:05:28.426Z,40.00
2019-05-20T20:07:57.395Z,45.37
2019-05-20T20:10:26.095Z,44.17
2019-05-20T20:12:54.687Z,39.50
2019-05-20T20:15:23.331Z,43.90
2019-05-20T20:17:52.208Z,46.83
2019-05-20T20:20:20.826Z,47.17
2019-05-20T20:22:49.434Z,48.60
2019-05-20T20:25:18.515Z,51.77
2019-05-20T20:27:47.145Z,52.40
2019-05-20T20:30:16.136Z,51.00
2019-05-20T20:32:44.986Z,50.37
2019-05-20T20:35:14.794Z,54.03
2019-05-20T20:37:43.561Z,49.83
2019-05-20T20:40:12.856Z,51.47
2019-05-20T20:42:41.446Z,53.50
2019-05-20T20:45:10.182Z,52.93
2019-05-20T20:47:42.040Z,56.13
2019-05-20T20:50:09.428Z,50.27
2019-05-20T20:52:37.990Z,48.43
2019-05-20T20:55:07.739Z,49.93
2019-05-20T20:57:36.702Z,50.33
2019-05-20T21:00:07.178Z,52.03
2019-05-20T21:02:35.743Z,51.23
2019-05-20T21:05:05.771Z,49.00
2019-05-20T21:07:34.407Z,54.17
2019-05-20T21:10:03.509Z,49.30
2019-05-20T21:12:32.167Z,49.50
2019-05-20T21:15:00.731Z,54.73
2019-05-20T21:17:31.072Z,50.67
2019-05-20T21:19:59.703Z,53.23
2019-05-20T21:22:28.619Z,54.17
2019-05-20T21:24:57.303Z,52.43
2019-05-20T21:27:25.879Z,53.83
2019-05-20T21:29:54.752Z,54.03
2019-05-20T21:32:23.382Z,53.70
2019-05-20T21:34:52.122Z,49.23
2019-05-20T21:37:20.679Z,51.13
2019-05-20T21:39:49.343Z,51.80
2019-05-20T21:42:17.951Z,51.97
2019-05-20T21:44:46.587Z,52.73
2019-05-20T21:47:15.646Z,49.17
2019-05-20T21:49:44.331Z,52.27
2019-05-20T21:52:13.226Z,52.17
2019-05-20T21:54:41.823Z,57.67
2019-05-20T21:57:10.391Z,53.20
2019-05-20T21:59:39.059Z,56.50
2019-05-20T22:02:07.872Z,56.67
2019-05-20T22:04:36.755Z,57.10
2019-05-20T22:07:05.454Z,57.37
2019-05-20T22:09:34.323Z,54.43
2019-05-20T22:12:03.030Z,56.60
2019-05-20T22:14:32.004Z,54.87
2019-05-20T22:17:00.794Z,53.60
2019-05-20T22:19:29.834Z,54.47
2019-05-20T22:22:02.493Z,55.60
2019-05-20T22:24:31.348Z,53.60
2019-05-20T22:27:00.059Z,55.50
2019-05-20T22:29:28.623Z,56.23
2019-05-20T22:31:57.212Z,58.57
2019-05-20T22:34:25.855Z,56.27
2019-05-20T22:36:54.885Z,55.40
2019-05-20T22:39:23.517Z,55.37
2019-05-20T22:41:52.463Z,56.63
2019-05-20T22:44:21.033Z,58.77
2019-05-20T22:46:49.655Z,53.97
2019-05-20T22:49:18.218Z,58.20
2019-05-20T22:51:46.815Z,54.43
2019-05-20T22:54:15.510Z,56.80
2019-05-20T22:56:44.671Z,55.50
2019-05-20T22:59:14.071Z,57.83
2019-05-20T23:01:43.063Z,57.00
2019-05-20T23:04:11.639Z,55.80
2019-05-20T23:06:40.298Z,55.17
2019-05-20T23:09:10.833Z,58.07
2019-05-20T23:11:39.310Z,55.37
2019-05-20T23:14:08.331Z,61.63
2019-05-20T23:16:36.969Z,57.67
2019-05-20T23:19:05.911Z,57.03
2019-05-20T23:21:34.472Z,55.57
2019-05-20T23:24:03.066Z,55.70
2019-05-20T23:26:31.895Z,50.53
2019-05-20T23:29:00.874Z,51.93
2019-05-20T23:31:29.851Z,53.87
2019-05-20T23:34:11.752Z,54.43
2019-05-20T23:36:29.068Z,49.37
2019-05-20T23:38:58.161Z,49.10
2019-05-20T23:41:26.855Z,50.43
2019-05-20T23:43:55.755Z,49.27
2019-05-20T23:46:24.396Z,45.67
2019-05-20T23:48:53.311Z,46.50
2019-05-20T23:51:21.874Z,44.23
2019-05-20T23:53:50.553Z,41.63
2019-05-20T23:56:19.290Z,46.13
2019-05-20T23:58:48.255Z,44.30
